Startpagina
METAR-TAF:

METAR-TAF

Vliegvelden :

Kopenhagen, Denemarken

Internationale luchthaven Kopenhagen Kastrup

breedte: 55-37N, lengte: 012-39E, hoogte: 5 m

Actueel weer

Dit bericht is 27 minuten geleden gemaakt, om 20:48 UTC
Wind 10 kt uit het westzuidwesten
Temperatuur 3°C
Vochtigheid 87%
Druk 984 hPa
Zicht 10 km of meer
Gebroken wolken op 1300 ft

METAR: EKCH 162048Z 24010KT 9999 BKN013 03/01 Q0984 NOSIG

Tijdstip: 22:15 (21:15 UTC)

Verwachting

Dit bericht is 4 uur en het 13 minuten geleden gemaakt, om 17:02 UTC
Verwachting geldig van 16 om 18 UTC tot 17 om 18 UTC
Wind 12 kt uit het westzuidwesten
Zicht 10 km of meer
Gebroken wolken op 2000 ft
Tijdelijke
van 16 om 18 UTC tot 17 om 18 UTC
Gebroken wolken op 1200 ft

TAF: EKCH 161702Z 1618/1718 24012KT 9999 BKN020 TEMPO 1618/1718 BKN012

Waarnemingen en weersverwachtingen van meer dan 4000 vliegvelden (METAR en TAF).

De beschikbare stations zijn de gele en rode punten op de kaart.

Ga met uw muis naar het station om de naam te zien.

Klik dan om waarnemingen en weersverwachtingen te zien.

kaart wijzigen: klik op de groene knoppen met een zwart kruis om in te zoomen, op de groene knop met een streepje om uit te zoomen of op de groene pijlen voor aangrenzende kaarten.


METAR-TAF: